Time;durP1;ratioP1;P1;durP2;ratioP2;P2;SDS_P1;SDS_P2;PMS_P1;PMS_P2;Temp;Humidity;BMP_temperature;BMP_pressure;BME280_temperature;BME280_humidity;BME280_pressure;Samples;Min_cycle;Max_cycle;Signal;HPM_P1;HPM_P2
2022/03/13 00:01:55;;;;;;;14.73;8.25;;;8.60;99.90;;;;;;5023142;28;20140;-77
2022/03/13 00:04:21;;;;;;;13.50;8.30;;;8.60;99.90;;;;;;5015918;23;20057;-76
2022/03/13 00:06:48;;;;;;;16.58;8.18;;;8.50;99.90;;;;;;4979969;28;20065;-77
2022/03/13 00:09:14;;;;;;;13.68;8.10;;;8.50;99.90;;;;;;4994308;28;20030;-76
2022/03/13 00:11:40;;;;;;;15.18;8.30;;;8.40;99.90;;;;;;4995057;28;20018;-76
2022/03/13 00:14:09;;;;;;;12.98;8.02;;;8.40;99.90;;;;;;4995297;28;20033;-76
2022/03/13 00:16:35;;;;;;;13.10;7.80;;;8.30;99.90;;;;;;5003470;28;20018;-77
2022/03/13 00:19:00;;;;;;;13.07;7.75;;;8.20;99.90;;;;;;5002612;28;20034;-76
2022/03/13 00:21:26;;;;;;;16.65;8.40;;;8.20;99.90;;;;;;5003448;28;20101;-76
2022/03/13 00:23:51;;;;;;;12.57;7.60;;;8.10;99.90;;;;;;4982775;28;20107;-77
2022/03/13 00:26:18;;;;;;;13.60;8.35;;;8.10;99.90;;;;;;4983517;28;20037;-77
2022/03/13 00:28:45;;;;;;;13.50;7.80;;;8.10;99.90;;;;;;5009500;28;20026;-75
2022/03/13 00:31:12;;;;;;;13.40;8.73;;;8.00;99.90;;;;;;4994551;28;20450;-77
2022/03/13 00:33:38;;;;;;;12.68;8.55;;;7.90;99.90;;;;;;5011400;28;20078;-77
2022/03/13 00:36:04;;;;;;;12.82;7.53;;;8.00;99.90;;;;;;4987897;28;20023;-76
2022/03/13 00:38:30;;;;;;;14.10;7.63;;;8.00;99.90;;;;;;4979649;28;20054;-76
2022/03/13 00:40:57;;;;;;;14.65;8.45;;;8.00;99.90;;;;;;4978755;28;20084;-76
2022/03/13 00:43:25;;;;;;;16.80;8.27;;;8.10;99.90;;;;;;4979208;28;20056;-78
2022/03/13 00:45:52;;;;;;;12.98;8.10;;;8.10;99.90;;;;;;5014369;28;20033;-77
2022/03/13 00:48:18;;;;;;;12.98;7.82;;;8.10;99.90;;;;;;4995806;28;20171;-76
2022/03/13 00:50:46;;;;;;;14.80;8.52;;;8.10;99.90;;;;;;5013372;28;20030;-76
2022/03/13 00:53:13;;;;;;;13.85;8.68;;;8.10;99.50;;;;;;4995733;28;20029;-77
2022/03/13 00:55:39;;;;;;;12.98;7.53;;;8.00;99.00;;;;;;4995790;28;20033;-76
2022/03/13 00:58:05;;;;;;;12.45;7.88;;;8.00;97.40;;;;;;4995576;28;20025;-77
2022/03/13 01:00:30;;;;;;;12.00;7.40;;;8.00;95.70;;;;;;5013467;28;20081;-77
2022/03/13 01:02:56;;;;;;;15.90;9.55;;;8.00;94.00;;;;;;5012963;28;20365;-76
2022/03/13 01:05:27;;;;;;;15.85;7.97;;;8.00;92.50;;;;;;5013247;28;20481;-76
2022/03/13 01:07:55;;;;;;;16.38;7.97;;;8.00;91.80;;;;;;4995141;28;20092;-75
2022/03/13 01:10:22;;;;;;;10.00;6.72;;;8.00;91.10;;;;;;5013201;28;20053;-75
2022/03/13 01:12:48;;;;;;;13.30;7.75;;;7.90;89.10;;;;;;5013125;28;20022;-76
2022/03/13 01:15:15;;;;;;;12.82;7.55;;;8.00;87.00;;;;;;5013341;28;20026;-77
2022/03/13 01:17:42;;;;;;;15.07;7.43;;;8.00;85.70;;;;;;4995409;28;20030;-76
2022/03/13 01:20:16;;;;;;;12.45;7.90;;;7.90;83.90;;;;;;5013015;28;20026;-77
2022/03/13 01:22:42;;;;;;;11.48;7.07;;;8.00;81.00;;;;;;4994606;28;20050;-77
2022/03/13 01:25:08;;;;;;;12.63;7.43;;;8.00;80.30;;;;;;4995469;28;20030;-76
2022/03/13 01:27:35;;;;;;;13.80;8.07;;;8.00;79.00;;;;;;4994942;28;20022;-76
2022/03/13 01:30:03;;;;;;;11.95;8.07;;;8.00;77.30;;;;;;4994773;28;20034;-77
2022/03/13 01:32:29;;;;;;;11.93;7.35;;;7.90;77.10;;;;;;5012506;28;20014;-77
2022/03/13 01:34:55;;;;;;;13.50;7.32;;;7.80;78.20;;;;;;5012856;28;20481;-78
2022/03/13 01:37:33;;;;;;;11.98;7.90;;;7.70;77.90;;;;;;4994807;28;20030;-76
2022/03/13 01:40:04;;;;;;;11.52;7.75;;;7.60;78.20;;;;;;5012414;28;20026;-76
2022/03/13 01:42:29;;;;;;;12.07;7.03;;;7.50;78.60;;;;;;5012371;28;20041;-76
2022/03/13 01:44:55;;;;;;;13.48;7.50;;;7.50;78.50;;;;;;4994609;28;20028;-76
2022/03/13 01:47:21;;;;;;;14.05;7.40;;;7.40;77.90;;;;;;4994951;28;20030;-75
2022/03/13 01:49:47;;;;;;;14.48;9.05;;;7.40;78.80;;;;;;4994787;28;20096;-75
2022/03/13 01:52:15;;;;;;;12.68;8.23;;;7.40;78.30;;;;;;5012409;28;20465;-75
2022/03/13 01:54:42;;;;;;;14.23;8.77;;;7.30;78.70;;;;;;4994351;28;20044;-76
2022/03/13 01:57:07;;;;;;;13.07;7.68;;;7.20;79.00;;;;;;5012582;28;20022;-76
2022/03/13 01:59:35;;;;;;;13.73;8.68;;;7.20;80.40;;;;;;4994366;28;20080;-75
2022/03/13 02:02:00;;;;;;;15.82;7.80;;;7.20;80.20;;;;;;5012691;28;20033;-75
2022/03/13 02:04:28;;;;;;;11.65;7.28;;;7.20;80.10;;;;;;4994627;28;20467;-75
2022/03/13 02:06:55;;;;;;;16.55;8.15;;;7.10;81.40;;;;;;4994431;28;20501;-78
2022/03/13 02:09:21;;;;;;;14.60;8.95;;;7.00;83.90;;;;;;5012323;28;20041;-75
2022/03/13 02:11:49;;;;;;;15.38;8.63;;;7.00;84.00;;;;;;4994579;28;20022;-77
2022/03/13 02:14:20;;;;;;;14.35;8.13;;;6.80;90.30;;;;;;4994681;28;20026;-76
2022/03/13 02:16:45;;;;;;;14.35;9.25;;;6.60;91.10;;;;;;5012566;28;20018;-76
2022/03/13 02:19:11;;;;;;;16.42;8.55;;;6.50;91.20;;;;;;5014327;28;20477;-77
2022/03/13 02:21:44;;;;;;;13.68;8.32;;;6.40;91.30;;;;;;4995819;28;20026;-76
2022/03/13 02:24:15;;;;;;;14.57;8.20;;;6.40;91.90;;;;;;4995091;28;20030;-75
2022/03/13 02:26:44;;;;;;;13.93;8.32;;;6.50;91.30;;;;;;5012233;28;20436;-76
2022/03/13 02:29:15;;;;;;;17.60;9.27;;;6.40;92.10;;;;;;4994607;28;20060;-78
2022/03/13 02:31:42;;;;;;;15.35;8.63;;;6.50;91.10;;;;;;5012000;28;20068;-77
2022/03/13 02:34:13;;;;;;;14.07;8.52;;;6.60;90.30;;;;;;5015821;28;20266;-76
2022/03/13 02:36:38;;;;;;;13.40;8.30;;;6.60;88.40;;;;;;4998297;28;20021;-76
2022/03/13 02:39:08;;;;;;;14.35;9.07;;;6.60;88.50;;;;;;5015933;28;20076;-75
2022/03/13 02:41:34;;;;;;;17.10;8.30;;;6.50;88.10;;;;;;5016515;28;20474;-75
2022/03/13 02:44:00;;;;;;;16.17;9.55;;;6.50;87.90;;;;;;5016136;28;20113;-75
2022/03/13 02:46:47;;;;;;;14.95;9.68;;;6.40;90.80;;;;;;5016089;28;20044;-77
2022/03/13 02:49:14;;;;;;;16.23;8.82;;;6.30;91.30;;;;;;4998377;28;20481;-76
2022/03/13 02:51:41;;;;;;;16.38;9.40;;;6.20;91.40;;;;;;5016461;28;20437;-75
2022/03/13 02:54:08;;;;;;;14.48;8.10;;;6.10;93.70;;;;;;4998258;28;20109;-76
2022/03/13 02:56:33;;;;;;;15.77;8.55;;;5.90;94.90;;;;;;5015702;28;20026;-76
2022/03/13 02:59:00;;;;;;;15.38;9.13;;;5.90;94.00;;;;;;5016209;28;20057;-77
2022/03/13 03:01:25;;;;;;;16.50;8.77;;;5.80;94.10;;;;;;4998142;28;20026;-77
2022/03/13 03:03:57;;;;;;;17.15;8.48;;;5.80;94.20;;;;;;5015712;28;20055;-75
2022/03/13 03:06:25;;;;;;;13.02;7.32;;;5.80;94.90;;;;;;5016246;28;20022;-77
2022/03/13 03:08:53;;;;;;;15.40;9.43;;;5.70;95.50;;;;;;4998351;28;20030;-77
2022/03/13 03:11:19;;;;;;;14.00;8.20;;;5.80;94.90;;;;;;4998809;28;20120;-77
2022/03/13 03:13:45;;;;;;;13.32;8.50;;;6.00;92.60;;;;;;5015882;28;20540;-75
2022/03/13 03:16:11;;;;;;;14.65;7.38;;;6.20;89.10;;;;;;4999700;28;20030;-75
2022/03/13 03:18:36;;;;;;;15.73;8.77;;;6.20;89.90;;;;;;5016721;28;20022;-76
2022/03/13 03:21:02;;;;;;;13.75;7.72;;;6.10;90.70;;;;;;5010054;28;20030;-76
2022/03/13 03:23:27;;;;;;;18.15;8.93;;;6.00;91.40;;;;;;5027854;28;20030;-76
2022/03/13 03:25:53;;;;;;;14.60;7.80;;;5.90;93.70;;;;;;5018958;28;20135;-75
2022/03/13 03:28:19;;;;;;;13.18;8.23;;;5.80;94.30;;;;;;5015709;28;20040;-77
2022/03/13 03:30:45;;;;;;;13.60;8.25;;;5.80;92.50;;;;;;4998553;28;20037;-76
2022/03/13 03:33:11;;;;;;;13.18;8.07;;;5.80;93.00;;;;;;5015389;28;20026;-77
2022/03/13 03:35:36;;;;;;;15.27;7.95;;;5.60;96.30;;;;;;5017000;28;20068;-74
2022/03/13 03:38:03;;;;;;;12.88;8.30;;;5.40;98.10;;;;;;5000325;28;20068;-77
2022/03/13 03:40:31;;;;;;;14.45;8.30;;;5.20;99.80;;;;;;5016940;28;20026;-75
2022/03/13 03:43:04;;;;;;;10.95;7.35;;;5.00;99.90;;;;;;5001058;28;20025;-76
2022/03/13 03:45:31;;;;;;;13.00;7.78;;;4.80;99.90;;;;;;4977134;28;20492;-75
2022/03/13 03:47:57;;;;;;;13.65;8.65;;;4.60;99.90;;;;;;4977289;28;20038;-76
2022/03/13 03:50:24;;;;;;;14.15;8.10;;;4.40;99.90;;;;;;4978438;28;20034;-76
2022/03/13 03:52:55;;;;;;;14.40;8.18;;;4.30;99.90;;;;;;4958701;28;20031;-76
2022/03/13 03:55:22;;;;;;;12.93;8.13;;;4.20;99.90;;;;;;4976321;28;20106;-77
2022/03/13 03:57:49;;;;;;;13.63;8.30;;;4.00;99.90;;;;;;4975952;28;20061;-75
2022/03/13 04:00:14;;;;;;;19.45;8.52;;;3.90;99.90;;;;;;4958315;28;20031;-75
2022/03/13 04:02:41;;;;;;;17.35;9.55;;;3.90;99.90;;;;;;4975559;28;20118;-76
2022/03/13 04:05:08;;;;;;;15.90;9.05;;;3.90;99.90;;;;;;4975505;28;20066;-76
2022/03/13 04:07:33;;;;;;;12.75;7.78;;;4.00;99.90;;;;;;4958563;28;20039;-76
2022/03/13 04:09:59;;;;;;;13.43;8.45;;;4.00;99.90;;;;;;4976021;28;20446;-76
2022/03/13 04:12:28;;;;;;;14.95;8.25;;;4.10;99.90;;;;;;4958628;28;20031;-74
2022/03/13 04:14:54;;;;;;;16.13;8.43;;;4.20;99.90;;;;;;4957902;28;20022;-77
2022/03/13 04:17:20;;;;;;;13.48;7.93;;;4.40;99.30;;;;;;4975199;28;20110;-76
2022/03/13 04:19:45;;;;;;;15.52;7.97;;;4.50;99.90;;;;;;4975330;28;20030;-77
2022/03/13 04:22:12;;;;;;;18.80;8.05;;;4.60;97.20;;;;;;4975305;28;20019;-78
2022/03/13 04:24:37;;;;;;;14.32;8.02;;;4.70;95.20;;;;;;4957948;28;20034;-77
2022/03/13 04:27:03;;;;;;;17.17;9.05;;;4.70;96.00;;;;;;4957605;28;20027;-77
2022/03/13 04:29:29;;;;;;;13.30;9.00;;;4.80;96.70;;;;;;4974945;28;20440;-76
2022/03/13 04:31:55;;;;;;;13.35;7.75;;;4.70;99.90;;;;;;4975112;28;20579;-75
2022/03/13 04:34:22;;;;;;;12.90;8.68;;;4.60;99.90;;;;;;4957430;28;20038;-76
2022/03/13 04:36:48;;;;;;;15.15;8.35;;;4.40;99.90;;;;;;4957664;28;20022;-77
2022/03/13 04:39:14;;;;;;;14.40;8.02;;;4.10;99.90;;;;;;4974504;28;20035;-76
2022/03/13 04:41:41;;;;;;;13.80;7.78;;;4.00;99.90;;;;;;4975071;28;20030;-76
2022/03/13 04:44:07;;;;;;;14.90;8.38;;;3.90;99.90;;;;;;4974135;28;20038;-75
2022/03/13 04:46:33;;;;;;;13.13;7.75;;;3.90;99.90;;;;;;4995823;28;20080;-77
2022/03/13 04:48:59;;;;;;;14.93;8.50;;;4.00;99.90;;;;;;5013288;28;20033;-76
2022/03/13 04:51:24;;;;;;;16.30;8.70;;;4.20;97.10;;;;;;5013669;28;20026;-76
2022/03/13 04:53:50;;;;;;;14.38;8.25;;;4.30;94.20;;;;;;5013513;28;20497;-74
2022/03/13 04:56:16;;;;;;;15.35;7.50;;;4.40;92.50;;;;;;5013407;28;20057;-76
2022/03/13 04:58:42;;;;;;;17.30;8.98;;;4.60;86.80;;;;;;4995442;28;20104;-76
2022/03/13 05:01:07;;;;;;;13.68;9.00;;;4.70;84.30;;;;;;5013343;28;20034;-76
2022/03/13 05:03:34;;;;;;;18.15;9.05;;;4.80;81.30;;;;;;4995644;28;20178;-75
2022/03/13 05:06:07;;;;;;;15.43;8.40;;;4.90;79.40;;;;;;5013064;28;20141;-77
2022/03/13 05:08:34;;;;;;;14.93;8.50;;;5.10;77.10;;;;;;5013020;28;20021;-76
2022/03/13 05:10:59;;;;;;;17.90;8.13;;;5.30;74.30;;;;;;5013314;28;20022;-77
2022/03/13 05:13:26;;;;;;;12.57;7.28;;;5.50;72.80;;;;;;5013355;28;20030;-77
2022/03/13 05:15:52;;;;;;;11.55;7.00;;;5.60;70.80;;;;;;5013027;28;20053;-77
2022/03/13 05:18:18;;;;;;;14.98;7.68;;;5.70;70.10;;;;;;5012800;28;20029;-76
2022/03/13 05:20:44;;;;;;;11.57;6.80;;;5.70;69.50;;;;;;5012989;28;20029;-77
2022/03/13 05:23:10;;;;;;;11.43;7.25;;;5.80;68.20;;;;;;5012713;28;20030;-77
2022/03/13 05:25:37;;;;;;;11.60;7.20;;;5.70;70.60;;;;;;4995531;28;20608;-77
2022/03/13 05:28:04;;;;;;;22.83;8.82;;;5.50;75.70;;;;;;5012657;28;20025;-76
2022/03/13 05:30:30;;;;;;;11.45;7.32;;;5.20;85.10;;;;;;4995273;28;20026;-76
2022/03/13 05:32:56;;;;;;;15.18;8.95;;;4.90;92.10;;;;;;5012817;28;20470;-78
2022/03/13 05:35:23;;;;;;;17.70;9.05;;;4.50;99.90;;;;;;4995150;28;20026;-77
2022/03/13 05:37:48;;;;;;;16.33;8.68;;;4.20;99.90;;;;;;4995487;28;20500;-77
2022/03/13 05:40:16;;;;;;;17.33;8.50;;;4.00;99.90;;;;;;4995661;28;20054;-77
2022/03/13 05:42:47;;;;;;;15.90;8.73;;;3.80;99.90;;;;;;4995495;28;20026;-77
2022/03/13 05:45:20;;;;;;;14.85;9.07;;;3.60;99.90;;;;;;5012449;28;20073;-77
2022/03/13 05:47:47;;;;;;;15.68;9.73;;;3.30;99.90;;;;;;4995212;28;20032;-76
2022/03/13 05:50:14;;;;;;;17.85;9.52;;;3.20;99.90;;;;;;5012019;28;20030;-75
2022/03/13 05:52:41;;;;;;;15.73;8.82;;;3.20;99.90;;;;;;4994951;28;20030;-76
2022/03/13 05:55:07;;;;;;;18.27;10.40;;;3.30;99.90;;;;;;5012426;28;20442;-75
2022/03/13 05:57:34;;;;;;;17.27;9.10;;;3.60;99.90;;;;;;5012261;28;20075;-76
2022/03/13 05:59:59;;;;;;;14.90;8.23;;;3.80;99.90;;;;;;5012443;28;20129;-75
2022/03/13 06:02:25;;;;;;;17.77;8.65;;;4.20;91.00;;;;;;4994619;28;20073;-76
2022/03/13 06:04:52;;;;;;;15.40;7.75;;;4.30;85.60;;;;;;5019782;23;20115;-78
2022/03/13 06:07:19;;;;;;;13.60;6.90;;;4.50;82.20;;;;;;4983944;28;20110;-78
2022/03/13 06:09:44;;;;;;;11.75;7.22;;;4.70;78.10;;;;;;4981292;28;20098;-77
2022/03/13 06:12:12;;;;;;;15.20;8.02;;;4.90;74.40;;;;;;4999448;28;20094;-77
2022/03/13 06:14:39;;;;;;;16.30;8.20;;;5.20;71.40;;;;;;4981796;28;20018;-79
2022/03/13 06:17:05;;;;;;;16.25;8.07;;;5.40;74.50;;;;;;4981613;28;20034;-77
2022/03/13 06:19:30;;;;;;;15.88;8.13;;;5.40;74.60;;;;;;4998710;28;20125;-78
2022/03/13 06:21:56;;;;;;;15.93;7.68;;;5.50;77.90;;;;;;4983877;28;20022;-81
2022/03/13 06:24:22;;;;;;;13.70;7.50;;;5.60;76.50;;;;;;5007876;28;20023;-80
2022/03/13 06:26:47;;;;;;;15.38;8.93;;;6.00;70.50;;;;;;5005727;28;20139;-78
2022/03/13 06:29:14;;;;;;;13.82;8.45;;;6.10;76.30;;;;;;4986332;28;20149;-79
2022/03/13 06:31:43;;;;;;;14.52;8.20;;;6.10;76.40;;;;;;5001316;28;20073;-79
2022/03/13 06:34:08;;;;;;;15.68;9.07;;;6.10;77.80;;;;;;4982831;28;20061;-79
2022/03/13 06:36:37;;;;;;;12.98;8.38;;;6.10;79.80;;;;;;4981507;28;20026;-77
2022/03/13 06:39:03;;;;;;;15.00;8.45;;;6.20;80.20;;;;;;4981293;28;20027;-77
2022/03/13 06:41:29;;;;;;;14.57;8.30;;;6.30;80.10;;;;;;4981430;28;20026;-77
2022/03/13 06:43:54;;;;;;;16.20;8.32;;;6.30;81.40;;;;;;4988175;28;20113;-78
2022/03/13 06:46:20;;;;;;;19.15;9.00;;;6.50;80.90;;;;;;5018354;28;20336;-77
2022/03/13 06:48:46;;;;;;;13.52;8.50;;;6.60;80.20;;;;;;5000421;28;20034;-77
2022/03/13 06:51:12;;;;;;;14.35;8.05;;;6.70;79.80;;;;;;5001423;28;20026;-78
2022/03/13 06:53:37;;;;;;;16.15;8.45;;;6.90;77.60;;;;;;5018122;28;20014;-79
2022/03/13 06:56:04;;;;;;;16.63;8.43;;;7.10;76.70;;;;;;5017864;28;20033;-76
2022/03/13 06:58:29;;;;;;;17.08;8.75;;;7.30;79.20;;;;;;5000448;28;20037;-78
2022/03/13 07:00:55;;;;;;;14.93;8.02;;;7.50;80.50;;;;;;5017452;28;20073;-78
2022/03/13 07:03:20;;;;;;;16.88;8.43;;;7.50;73.80;;;;;;5017801;28;20033;-77
2022/03/13 07:05:46;;;;;;;14.65;8.82;;;7.70;72.50;;;;;;5000735;28;20029;-79
2022/03/13 07:08:13;;;;;;;14.35;8.55;;;7.90;71.90;;;;;;4999750;28;20033;-77
2022/03/13 07:10:38;;;;;;;14.65;8.05;;;8.10;69.20;;;;;;4999648;28;20026;-78
2022/03/13 07:13:04;;;;;;;17.08;9.00;;;8.30;66.40;;;;;;4999669;28;20018;-79
2022/03/13 07:15:31;;;;;;;14.05;8.40;;;8.60;68.30;;;;;;4999977;28;20026;-79
2022/03/13 07:17:57;;;;;;;12.75;8.25;;;8.80;68.70;;;;;;5016913;28;20453;-79
2022/03/13 07:20:23;;;;;;;14.68;8.43;;;9.00;67.50;;;;;;5021320;28;20064;-78
2022/03/13 07:22:49;;;;;;;16.65;9.05;;;9.20;67.50;;;;;;5021934;28;20040;-77
2022/03/13 07:25:16;;;;;;;12.75;7.93;;;9.50;67.50;;;;;;5021139;28;20026;-80
2022/03/13 07:27:42;;;;;;;14.15;8.10;;;9.80;64.90;;;;;;5021124;28;20056;-79
2022/03/13 07:30:12;;;;;;;13.52;8.13;;;10.30;62.10;;;;;;5020498;28;20017;-78
2022/03/13 07:32:40;;;;;;;16.25;8.73;;;10.60;57.40;;;;;;5020474;28;20120;-78
2022/03/13 07:35:06;;;;;;;11.55;7.45;;;11.00;56.50;;;;;;5021083;28;20022;-79
2022/03/13 07:37:32;;;;;;;13.52;8.07;;;11.30;55.30;;;;;;5020896;28;20026;-78
2022/03/13 07:39:59;;;;;;;16.27;7.78;;;11.60;54.10;;;;;;5037624;28;20036;-78
2022/03/13 07:42:24;;;;;;;10.85;7.25;;;11.70;51.00;;;;;;5034277;28;20192;-80
2022/03/13 07:44:50;;;;;;;11.57;8.30;;;11.80;50.00;;;;;;5023953;28;20026;-80
2022/03/13 07:47:16;;;;;;;11.05;7.18;;;11.60;49.20;;;;;;5005453;28;20052;-78
2022/03/13 07:49:41;;;;;;;13.13;8.25;;;11.50;49.30;;;;;;5022540;28;20058;-78
2022/03/13 07:52:07;;;;;;;12.23;7.45;;;11.60;49.80;;;;;;5003102;28;20069;-79
2022/03/13 07:54:33;;;;;;;10.25;7.53;;;11.70;50.60;;;;;;5002558;28;20335;-77
2022/03/13 07:56:58;;;;;;;12.10;7.68;;;11.90;50.60;;;;;;5021653;28;20076;-79
2022/03/13 07:59:24;;;;;;;11.07;7.13;;;12.20;50.50;;;;;;5003950;28;20026;-81
2022/03/13 08:01:50;;;;;;;12.38;8.25;;;12.50;50.20;;;;;;5022697;28;20041;-80
2022/03/13 08:04:16;;;;;;;12.80;7.85;;;12.50;48.50;;;;;;5023177;28;20080;-78
2022/03/13 08:06:42;;;;;;;13.05;7.75;;;12.50;47.40;;;;;;5005819;28;20030;-79
2022/03/13 08:09:08;;;;;;;14.63;8.10;;;12.70;48.60;;;;;;5023339;28;20505;-79
2022/03/13 08:11:35;;;;;;;12.55;7.53;;;12.70;47.90;;;;;;5008453;28;20042;-80
2022/03/13 08:14:02;;;;;;;13.80;9.15;;;13.00;48.10;;;;;;5010768;28;20072;-80
2022/03/13 08:16:28;;;;;;;15.13;8.88;;;13.20;46.80;;;;;;5028109;28;20042;-79
2022/03/13 08:18:54;;;;;;;13.32;8.48;;;13.40;47.40;;;;;;5006689;28;20032;-78
2022/03/13 08:21:19;;;;;;;13.13;8.70;;;13.60;47.20;;;;;;5019836;28;20513;-75
2022/03/13 08:23:45;;;;;;;13.52;8.50;;;13.70;47.10;;;;;;5001472;28;20105;-77
2022/03/13 08:26:12;;;;;;;16.48;9.48;;;13.90;46.30;;;;;;5000431;28;20018;-77
2022/03/13 08:28:41;;;;;;;13.20;8.82;;;14.00;46.20;;;;;;4998909;28;20032;-77
2022/03/13 08:31:07;;;;;;;14.75;8.43;;;13.80;45.40;;;;;;4999325;28;20032;-79
2022/03/13 08:33:34;;;;;;;13.07;9.07;;;13.90;46.20;;;;;;4999734;28;20022;-80
2022/03/13 08:36:00;;;;;;;13.55;9.35;;;14.10;47.30;;;;;;5017761;28;20056;-77
2022/03/13 08:38:25;;;;;;;18.17;9.07;;;14.10;46.50;;;;;;5018386;28;20088;-78
2022/03/13 08:40:51;;;;;;;15.55;9.50;;;14.60;45.90;;;;;;5017006;28;20036;-78
2022/03/13 08:43:17;;;;;;;16.58;8.88;;;14.80;45.80;;;;;;5016799;28;20031;-79
2022/03/13 08:45:42;;;;;;;12.27;8.95;;;15.20;46.20;;;;;;5019680;28;20030;-79
2022/03/13 08:48:08;;;;;;;15.45;9.23;;;15.40;44.50;;;;;;5005189;28;20032;-80
2022/03/13 08:50:34;;;;;;;15.73;10.07;;;15.70;44.10;;;;;;5017727;28;20026;-77
2022/03/13 08:53:00;;;;;;;14.60;10.05;;;15.90;44.90;;;;;;5018574;28;20045;-80
2022/03/13 08:55:25;;;;;;;14.65;9.75;;;15.50;44.00;;;;;;4999982;28;20022;-78
2022/03/13 08:57:51;;;;;;;13.85;9.88;;;14.90;45.20;;;;;;5017453;28;20073;-77
2022/03/13 09:00:18;;;;;;;14.15;9.77;;;14.90;45.40;;;;;;4999224;28;20022;-78
2022/03/13 09:02:45;;;;;;;16.38;10.10;;;15.30;46.30;;;;;;5000277;28;20049;-76
2022/03/13 09:05:11;;;;;;;14.18;8.82;;;15.60;45.20;;;;;;5016599;28;20044;-76
2022/03/13 09:07:37;;;;;;;14.10;10.27;;;15.80;45.30;;;;;;4997891;28;20026;-78
2022/03/13 09:10:11;;;;;;;15.73;10.55;;;16.00;44.60;;;;;;5015431;28;20037;-78
2022/03/13 09:12:38;;;;;;;15.65;9.98;;;16.20;45.80;;;;;;4999607;28;20022;-79
2022/03/13 09:15:04;;;;;;;13.63;9.90;;;16.20;43.60;;;;;;4998578;28;20037;-78
2022/03/13 09:17:30;;;;;;;13.00;9.50;;;16.20;44.70;;;;;;5017107;28;20048;-79
2022/03/13 09:19:56;;;;;;;14.50;9.15;;;16.40;45.50;;;;;;5016433;28;20488;-78
2022/03/13 09:22:22;;;;;;;12.98;8.82;;;16.70;44.20;;;;;;5015336;28;20026;-78
2022/03/13 09:24:49;;;;;;;13.05;9.07;;;16.70;44.10;;;;;;5015248;28;20092;-78
2022/03/13 09:27:14;;;;;;;14.65;10.07;;;16.70;44.20;;;;;;4998117;28;20109;-79
2022/03/13 09:29:40;;;;;;;16.50;10.13;;;16.80;43.30;;;;;;4997743;28;20053;-77
2022/03/13 09:32:06;;;;;;;14.40;9.85;;;16.70;43.90;;;;;;4998114;28;20508;-75
2022/03/13 09:34:32;;;;;;;16.95;10.07;;;16.80;43.80;;;;;;5016525;28;20080;-77
2022/03/13 09:36:59;;;;;;;13.38;9.75;;;17.00;43.40;;;;;;5017157;28;20021;-81
2022/03/13 09:39:25;;;;;;;16.77;10.35;;;16.90;43.80;;;;;;4998679;28;20140;-77
2022/03/13 09:41:52;;;;;;;17.90;11.02;;;17.00;44.80;;;;;;5019788;28;20022;-77
2022/03/13 09:44:17;;;;;;;17.70;11.23;;;17.10;45.00;;;;;;5022900;28;20428;-80
2022/03/13 09:46:43;;;;;;;16.10;10.73;;;17.10;44.80;;;;;;5018939;28;20106;-79
2022/03/13 09:49:09;;;;;;;14.45;9.75;;;17.30;46.20;;;;;;5017845;28;20032;-79
2022/03/13 09:51:34;;;;;;;18.55;10.73;;;17.50;44.80;;;;;;5017301;28;20026;-78
2022/03/13 09:54:02;;;;;;;14.20;9.93;;;17.70;44.80;;;;;;4999087;28;20026;-78
2022/03/13 09:56:27;;;;;;;15.02;10.38;;;18.00;45.30;;;;;;4999450;28;20021;-80
2022/03/13 09:58:54;;;;;;;18.20;11.35;;;18.10;43.70;;;;;;5000425;28;20040;-80
2022/03/13 10:01:19;;;;;;;16.73;11.52;;;18.10;44.50;;;;;;5000209;28;20025;-79
2022/03/13 10:03:45;;;;;;;15.65;10.30;;;18.00;43.80;;;;;;5017297;28;20493;-78
2022/03/13 10:06:11;;;;;;;16.23;11.35;;;18.20;45.50;;;;;;5016982;28;20439;-79
2022/03/13 10:08:36;;;;;;;15.05;11.18;;;18.20;44.30;;;;;;5016124;28;20094;-79
2022/03/13 10:11:03;;;;;;;16.33;11.07;;;18.30;43.70;;;;;;5015380;28;20066;-77
2022/03/13 10:13:41;;;;;;;16.95;10.98;;;18.30;44.50;;;;;;5015466;28;20039;-78
2022/03/13 10:16:17;;;;;;;14.30;10.00;;;17.70;44.70;;;;;;5015894;28;20022;-78
2022/03/13 10:18:44;;;;;;;14.70;10.52;;;17.90;45.10;;;;;;5015138;28;20053;-78
2022/03/13 10:21:13;;;;;;;17.10;10.88;;;18.00;45.30;;;;;;5016369;28;20033;-77
2022/03/13 10:23:42;;;;;;;19.38;11.27;;;18.30;46.90;;;;;;4999172;28;20036;-78
2022/03/13 10:26:08;;;;;;;13.93;10.20;;;18.10;47.30;;;;;;4997808;28;20041;-77
2022/03/13 10:28:40;;;;;;;16.55;11.00;;;18.10;46.70;;;;;;5015278;28;20037;-78
2022/03/13 10:31:13;;;;;;;17.75;10.95;;;18.20;46.40;;;;;;5014464;28;20045;-79
2022/03/13 10:33:44;;;;;;;13.15;9.98;;;18.00;46.00;;;;;;4997771;28;20030;-79
2022/03/13 10:36:14;;;;;;;19.70;11.77;;;18.00;46.00;;;;;;5015533;28;20030;-78
2022/03/13 10:38:41;;;;;;;18.10;11.00;;;17.90;45.90;;;;;;5014512;28;20374;-79
2022/03/13 10:41:10;;;;;;;15.73;10.80;;;18.00;46.60;;;;;;5014339;28;20432;-79
2022/03/13 10:43:45;;;;;;;17.85;11.10;;;18.40;46.30;;;;;;4996553;28;20022;-80
2022/03/13 10:46:32;;;;;;;17.88;10.43;;;18.20;46.80;;;;;;5014039;28;20112;-79
2022/03/13 10:49:00;;;;;;;14.35;9.95;;;18.40;47.30;;;;;;4996317;28;20118;-79
2022/03/13 10:51:48;;;;;;;12.93;9.50;;;18.20;47.80;;;;;;4996236;28;20096;-77
2022/03/13 10:54:32;;;;;;;12.40;8.93;;;18.20;49.50;;;;;;5015898;28;20030;-76
2022/03/13 10:57:08;;;;;;;12.90;9.35;;;18.30;49.10;;;;;;5000554;28;20045;-76
2022/03/13 10:59:34;;;;;;;14.57;9.75;;;18.50;49.00;;;;;;5007976;28;20446;-78
2022/03/13 11:02:31;;;;;;;15.40;9.40;;;18.70;51.40;;;;;;5011046;28;20038;-79
2022/03/13 11:04:57;;;;;;;13.55;9.18;;;18.80;48.40;;;;;;4986665;28;20104;-79
2022/03/13 11:07:26;;;;;;;14.52;9.85;;;18.20;49.70;;;;;;5002378;28;20022;-77
2022/03/13 11:09:54;;;;;;;13.70;9.27;;;18.10;50.10;;;;;;5001404;28;20432;-78
2022/03/13 11:12:21;;;;;;;14.23;9.52;;;18.30;50.80;;;;;;5019773;28;20396;-77
2022/03/13 11:14:52;;;;;;;14.57;9.57;;;18.70;49.50;;;;;;5001584;28;20026;-78
2022/03/13 11:17:24;;;;;;;15.45;10.57;;;18.90;45.80;;;;;;5018580;28;20462;-80
2022/03/13 11:19:53;;;;;;;15.32;10.40;;;19.00;45.00;;;;;;5018973;28;20084;-78
2022/03/13 11:22:20;;;;;;;15.32;10.30;;;19.10;45.00;;;;;;5018902;28;20029;-75
2022/03/13 11:24:51;;;;;;;14.57;10.15;;;19.30;46.00;;;;;;5002381;28;20030;-79
2022/03/13 11:27:17;;;;;;;17.23;10.82;;;19.30;45.40;;;;;;5002149;28;20098;-77
2022/03/13 11:29:54;;;;;;;21.10;11.02;;;19.10;43.70;;;;;;5001433;28;20058;-76
2022/03/13 11:32:51;;;;;;;14.85;10.82;;;19.00;44.80;;;;;;5001915;28;20381;-76
2022/03/13 11:35:18;;;;;;;17.48;10.07;;;18.80;44.80;;;;;;5011522;28;20442;-80
2022/03/13 11:37:46;;;;;;;15.63;10.48;;;18.60;44.90;;;;;;5018324;28;20052;-78
2022/03/13 11:40:15;;;;;;;14.80;10.98;;;18.80;45.40;;;;;;5018488;28;20164;-77
2022/03/13 11:42:56;;;;;;;16.77;10.43;;;18.70;44.90;;;;;;4999066;28;20033;-77
2022/03/13 11:45:29;;;;;;;16.67;10.85;;;19.00;46.00;;;;;;4999290;28;20025;-78
2022/03/13 11:48:04;;;;;;;16.95;11.48;;;19.00;45.30;;;;;;5000682;28;20559;-79
2022/03/13 11:50:51;;;;;;;13.70;10.20;;;19.00;44.80;;;;;;5000267;28;20113;-78
2022/03/13 11:53:45;;;;;;;17.85;10.60;;;18.90;45.30;;;;;;5015806;28;20261;-74
2022/03/13 11:56:20;;;;;;;13.50;9.70;;;19.00;44.90;;;;;;4998025;28;20042;-73
2022/03/13 11:58:50;;;;;;;15.18;9.68;;;19.10;45.70;;;;;;5014583;28;20030;-74
2022/03/13 12:01:29;;;;;;;12.75;8.85;;;19.30;46.00;;;;;;5014875;28;20056;-74
2022/03/13 12:04:00;;;;;;;15.95;10.60;;;19.30;46.70;;;;;;5012115;22;20073;-76
2022/03/13 12:06:52;;;;;;;13.98;9.70;;;19.20;46.20;;;;;;4977090;28;20093;-77
2022/03/13 12:09:29;;;;;;;13.27;9.55;;;19.00;47.20;;;;;;4978936;28;20042;-76
2022/03/13 12:12:12;;;;;;;14.73;9.40;;;19.00;47.20;;;;;;4962231;28;20019;-79
2022/03/13 12:15:02;;;;;;;12.52;8.55;;;19.20;47.70;;;;;;4978633;28;20027;-78
2022/03/13 12:17:30;;;;;;;13.45;8.07;;;19.10;48.30;;;;;;4960812;28;20050;-78
2022/03/13 12:19:58;;;;;;;12.00;7.75;;;18.70;48.60;;;;;;4979348;28;20026;-78
2022/03/13 12:22:25;;;;;;;15.63;8.52;;;18.30;49.70;;;;;;4978427;28;20030;-78
2022/03/13 12:24:54;;;;;;;11.63;7.97;;;18.40;50.50;;;;;;4959595;28;20019;-78
2022/03/13 12:27:22;;;;;;;12.15;7.60;;;18.40;50.10;;;;;;4978525;28;20343;-77
2022/03/13 12:29:50;;;;;;;10.13;6.65;;;18.60;50.40;;;;;;4979021;28;20173;-76
2022/03/13 12:32:16;;;;;;;12.02;7.50;;;18.90;50.20;;;;;;4963696;28;20023;-80
2022/03/13 12:34:42;;;;;;;10.45;6.85;;;19.20;49.40;;;;;;4982096;28;20090;-78
2022/03/13 12:37:09;;;;;;;9.13;6.60;;;19.30;48.40;;;;;;4982276;28;20023;-77
2022/03/13 12:39:48;;;;;;;9.88;7.40;;;19.00;48.40;;;;;;4965715;28;20030;-78
2022/03/13 12:42:21;;;;;;;9.45;7.07;;;18.90;49.40;;;;;;4965095;28;20054;-78
2022/03/13 12:45:06;;;;;;;7.82;6.82;;;19.10;49.70;;;;;;4997916;28;20098;-78